Time;durP1;ratioP1;P1;durP2;ratioP2;P2;SDS_P1;SDS_P2;PMS_P1;PMS_P2;Temp;Humidity;BMP_temperature;BMP_pressure;BME280_temperature;BME280_humidity;BME280_pressure;Samples;Min_cycle;Max_cycle;Signal;HPM_P1;HPM_P2
2022/06/04 00:00:48;;;;;;;12.25;5.95;;;11.90;99.90;;;;;;5041678;28;20098;-92
2022/06/04 00:03:15;;;;;;;8.18;5.68;;;12.00;99.90;;;;;;5037956;28;20080;-94
2022/06/04 00:05:45;;;;;;;15.68;8.20;;;12.00;99.90;;;;;;5037601;28;20026;-93
2022/06/04 00:08:12;;;;;;;11.52;6.35;;;12.00;99.90;;;;;;5041597;28;20101;-93
2022/06/04 00:16:10;;;;;;;12.32;7.05;;;11.80;99.90;;;;;;5057500;28;20101;-91
2022/06/04 00:18:37;;;;;;;10.73;6.93;;;11.80;99.90;;;;;;5056535;28;20025;-92
2022/06/04 00:21:04;;;;;;;12.82;6.47;;;11.70;99.90;;;;;;5052099;28;20029;-94
2022/06/04 00:23:30;;;;;;;12.27;6.60;;;11.70;99.90;;;;;;5039033;28;20132;-93
2022/06/04 00:25:58;;;;;;;9.85;6.63;;;11.70;99.90;;;;;;5038852;28;20053;-94
2022/06/04 00:28:25;;;;;;;16.33;6.50;;;11.70;99.90;;;;;;5044271;28;20093;-92
2022/06/04 00:30:52;;;;;;;8.80;6.30;;;11.70;99.90;;;;;;5047246;28;20025;-94
2022/06/04 00:33:18;;;;;;;13.55;7.25;;;11.70;99.90;;;;;;5040469;28;20033;-94
2022/06/04 00:35:45;;;;;;;10.88;6.63;;;11.70;99.90;;;;;;5036790;28;20048;-95
2022/06/04 00:38:14;;;;;;;12.38;6.95;;;11.60;99.90;;;;;;5037070;28;20060;-92
2022/06/04 00:40:52;;;;;;;9.52;5.60;;;11.60;99.90;;;;;;5035847;28;20060;-93
2022/06/04 00:43:19;;;;;;;11.45;6.40;;;11.60;99.90;;;;;;5035343;28;20034;-93
2022/06/04 00:46:16;;;;;;;9.18;6.47;;;11.60;99.90;;;;;;5034429;28;20116;-94
2022/06/04 00:48:42;;;;;;;10.70;7.15;;;11.60;99.90;;;;;;5034572;28;20087;-93
2022/06/04 00:51:08;;;;;;;13.73;6.55;;;11.60;99.90;;;;;;5034792;28;20030;-94
2022/06/04 00:53:35;;;;;;;8.30;5.53;;;11.60;99.90;;;;;;5034664;28;20128;-92
2022/06/04 00:56:36;;;;;;;12.38;5.78;;;11.60;99.90;;;;;;5034529;28;20489;-94
2022/06/04 00:59:20;;;;;;;11.70;6.65;;;11.60;99.90;;;;;;5033176;28;20038;-92
2022/06/04 01:01:50;;;;;;;13.43;6.60;;;11.60;99.90;;;;;;5033858;28;20060;-92
2022/06/04 01:04:47;;;;;;;8.02;5.00;;;11.60;99.90;;;;;;5033679;28;20018;-95
2022/06/04 01:07:20;;;;;;;10.75;5.22;;;11.50;99.90;;;;;;5034322;28;20034;-94
2022/06/04 01:10:04;;;;;;;9.10;5.38;;;11.50;99.90;;;;;;5033569;28;20026;-94
2022/06/04 01:12:36;;;;;;;11.88;6.13;;;11.50;99.90;;;;;;5034362;28;20109;-93
2022/06/04 01:15:21;;;;;;;9.27;4.43;;;11.50;99.90;;;;;;5036289;28;20061;-94
2022/06/04 01:17:56;;;;;;;7.35;4.68;;;11.50;99.90;;;;;;5034464;28;20026;-95
2022/06/04 01:20:39;;;;;;;7.40;4.68;;;11.40;99.90;;;;;;5034640;28;20109;-93
2022/06/04 01:23:50;;;;;;;9.68;5.03;;;11.40;99.90;;;;;;5033892;28;20040;-94
2022/06/04 01:26:22;;;;;;;5.90;4.63;;;11.30;99.90;;;;;;5026492;28;20034;-94
2022/06/04 01:28:54;;;;;;;7.35;5.20;;;11.30;99.90;;;;;;5034025;28;20060;-95
2022/06/04 01:31:41;;;;;;;7.65;5.03;;;11.30;99.90;;;;;;5033817;28;20121;-93
2022/06/04 01:34:10;;;;;;;9.35;5.43;;;11.30;99.90;;;;;;5034019;28;20061;-93
2022/06/04 01:36:48;;;;;;;8.48;5.40;;;11.30;99.90;;;;;;5034101;28;20018;-94
2022/06/04 01:39:27;;;;;;;7.10;5.07;;;11.30;99.90;;;;;;5033232;28;20035;-94
2022/06/04 01:42:02;;;;;;;10.70;5.05;;;11.30;99.90;;;;;;5033755;28;20021;-93
2022/06/04 01:44:35;;;;;;;7.65;4.75;;;11.30;99.90;;;;;;5036489;28;20049;-93
2022/06/04 01:47:07;;;;;;;8.38;4.95;;;11.30;99.90;;;;;;5037653;28;20034;-94
2022/06/04 01:50:08;;;;;;;7.05;4.90;;;11.20;99.90;;;;;;5036706;28;20036;-94
2022/06/04 01:52:38;;;;;;;7.60;4.75;;;11.20;99.90;;;;;;5025728;28;20045;-95
2022/06/04 01:55:16;;;;;;;8.82;5.13;;;11.20;99.90;;;;;;5038565;28;20026;-93
2022/06/04 01:57:44;;;;;;;6.40;4.78;;;11.10;99.90;;;;;;5037779;28;20059;-93
2022/06/04 02:00:18;;;;;;;9.02;5.30;;;11.10;99.90;;;;;;5037252;28;20040;-95
2022/06/04 02:02:53;;;;;;;7.57;5.18;;;11.10;99.90;;;;;;5037124;28;20026;-94
2022/06/04 02:05:36;;;;;;;10.07;4.93;;;11.10;99.90;;;;;;5036673;28;20022;-93
2022/06/04 02:08:06;;;;;;;11.15;5.55;;;11.10;99.90;;;;;;5036314;28;20510;-95
2022/06/04 02:10:37;;;;;;;10.77;4.95;;;11.10;99.90;;;;;;5036129;28;20065;-93
2022/06/04 02:13:09;;;;;;;7.72;4.85;;;11.10;99.90;;;;;;5035993;28;20578;-92
2022/06/04 02:15:59;;;;;;;9.73;5.20;;;11.10;99.90;;;;;;5050627;28;20020;-91
2022/06/04 02:18:25;;;;;;;9.15;5.93;;;11.10;99.90;;;;;;5038870;28;20029;-94
2022/06/04 02:20:51;;;;;;;6.60;4.82;;;11.00;99.90;;;;;;5038023;28;20037;-94
2022/06/04 02:23:17;;;;;;;10.65;5.28;;;11.10;99.90;;;;;;5036429;28;20025;-92
2022/06/04 02:25:43;;;;;;;10.77;5.28;;;11.10;99.90;;;;;;5036540;28;20021;-94
2022/06/04 02:28:10;;;;;;;6.80;4.57;;;11.00;99.90;;;;;;5039289;28;20052;-94
2022/06/04 02:30:54;;;;;;;10.93;6.05;;;11.00;99.90;;;;;;5036966;28;20029;-94
2022/06/04 02:33:25;;;;;;;12.55;5.50;;;11.00;99.90;;;;;;5036997;28;20041;-95
2022/06/04 02:36:02;;;;;;;8.70;5.53;;;11.00;99.90;;;;;;5036179;28;20053;-96
2022/06/04 02:38:52;;;;;;;8.60;5.60;;;11.00;99.90;;;;;;5035831;28;20090;-93
2022/06/04 02:41:26;;;;;;;9.17;5.60;;;10.90;99.90;;;;;;5037923;28;20096;-93
2022/06/04 02:43:55;;;;;;;6.78;5.35;;;10.90;99.90;;;;;;5036370;28;20264;-92
2022/06/04 02:46:31;;;;;;;10.45;5.85;;;10.90;99.90;;;;;;5036169;28;20026;-95
2022/06/04 02:49:23;;;;;;;10.02;6.78;;;10.90;99.90;;;;;;5037717;28;20029;-93
2022/06/04 02:51:53;;;;;;;12.48;6.85;;;10.90;99.90;;;;;;5045423;28;20109;-91
2022/06/04 02:54:29;;;;;;;9.32;6.13;;;10.90;99.90;;;;;;5057424;28;20028;-92
2022/06/04 02:56:58;;;;;;;13.63;6.90;;;10.90;99.90;;;;;;5038554;28;20124;-93
2022/06/04 02:59:26;;;;;;;9.35;6.75;;;10.80;99.90;;;;;;5035321;28;20026;-92
2022/06/04 03:01:57;;;;;;;13.40;6.78;;;10.80;99.90;;;;;;5035513;28;20028;-93
2022/06/04 03:04:22;;;;;;;9.23;5.18;;;10.80;99.90;;;;;;5035662;28;20487;-94
2022/06/04 03:06:48;;;;;;;9.25;5.93;;;10.80;99.90;;;;;;5035644;28;20029;-93
2022/06/04 03:09:17;;;;;;;9.77;6.40;;;10.70;99.90;;;;;;5035242;28;20022;-94
2022/06/04 03:11:45;;;;;;;10.38;6.22;;;10.80;99.90;;;;;;5035063;28;20095;-94
2022/06/04 03:14:12;;;;;;;24.27;8.63;;;10.80;99.90;;;;;;5035186;28;20044;-92
2022/06/04 03:16:40;;;;;;;7.30;5.32;;;10.80;99.90;;;;;;5035013;28;20033;-93
2022/06/04 03:19:07;;;;;;;12.45;6.72;;;10.80;99.90;;;;;;5035034;28;20041;-92
2022/06/04 03:21:37;;;;;;;9.98;6.18;;;10.80;99.90;;;;;;5034938;28;20022;-94
2022/06/04 03:24:04;;;;;;;10.32;5.45;;;10.80;99.90;;;;;;5034588;28;20178;-93
2022/06/04 03:26:30;;;;;;;9.80;5.78;;;10.80;99.90;;;;;;5018106;28;20087;-93
2022/06/04 03:28:56;;;;;;;7.65;5.78;;;10.70;99.90;;;;;;5034755;28;20117;-92
2022/06/04 03:31:22;;;;;;;8.88;5.10;;;10.80;99.90;;;;;;5035709;28;20045;-94
2022/06/04 03:33:48;;;;;;;8.50;6.18;;;10.80;99.90;;;;;;5046779;28;20113;-93
2022/06/04 03:36:14;;;;;;;10.10;5.95;;;10.80;99.90;;;;;;5034821;28;20055;-95
2022/06/04 03:38:39;;;;;;;7.75;5.30;;;10.70;99.90;;;;;;5034731;28;20099;-94
2022/06/04 03:41:05;;;;;;;8.07;5.28;;;10.80;99.90;;;;;;5034991;28;20029;-93
2022/06/04 03:43:31;;;;;;;7.55;5.45;;;10.70;99.90;;;;;;5034314;28;20025;-92
2022/06/04 03:45:57;;;;;;;10.50;5.85;;;10.80;99.90;;;;;;5034115;28;20026;-92
2022/06/04 03:48:22;;;;;;;13.25;6.18;;;10.80;99.90;;;;;;5034201;28;20079;-93
2022/06/04 03:50:49;;;;;;;13.18;7.22;;;10.70;99.90;;;;;;5033440;28;20025;-94
2022/06/04 03:53:15;;;;;;;9.38;6.38;;;10.70;99.90;;;;;;5033586;28;20061;-93
2022/06/04 03:55:41;;;;;;;10.90;6.72;;;10.70;99.90;;;;;;5033778;28;20491;-93
2022/06/04 03:58:06;;;;;;;12.65;6.07;;;10.70;99.90;;;;;;5034568;28;20502;-93
2022/06/04 04:00:36;;;;;;;8.48;5.78;;;10.70;99.90;;;;;;5047856;28;20032;-95
2022/06/04 04:03:06;;;;;;;11.32;6.45;;;10.60;99.90;;;;;;5041849;28;20030;-92
2022/06/04 04:05:37;;;;;;;9.13;6.70;;;10.60;99.90;;;;;;5034536;28;20029;-93
2022/06/04 04:08:07;;;;;;;9.27;6.05;;;10.60;99.90;;;;;;5034184;28;20467;-93
2022/06/04 04:10:33;;;;;;;9.18;5.03;;;10.50;99.90;;;;;;5033152;28;20030;-93
2022/06/04 04:12:59;;;;;;;12.48;7.00;;;10.50;99.90;;;;;;5033289;28;20037;-92
2022/06/04 04:15:26;;;;;;;15.75;6.82;;;10.60;99.90;;;;;;5033422;28;20022;-93
2022/06/04 04:17:52;;;;;;;11.70;7.10;;;10.60;99.90;;;;;;5033441;28;20030;-92
2022/06/04 04:20:21;;;;;;;10.90;6.53;;;10.60;99.90;;;;;;5034171;28;20121;-93
2022/06/04 04:22:47;;;;;;;10.10;6.70;;;10.60;99.90;;;;;;5033144;28;20028;-92
2022/06/04 04:25:15;;;;;;;13.40;6.43;;;10.60;99.90;;;;;;5032989;28;20022;-91
2022/06/04 04:27:42;;;;;;;8.63;5.78;;;10.60;99.90;;;;;;5032855;28;20482;-93
2022/06/04 04:30:10;;;;;;;14.52;7.63;;;10.60;99.90;;;;;;5033130;28;20109;-94
2022/06/04 04:32:36;;;;;;;12.68;5.43;;;10.50;99.90;;;;;;5032758;28;20048;-92
2022/06/04 04:35:04;;;;;;;10.40;5.60;;;10.50;99.90;;;;;;5032437;28;20490;-92
2022/06/04 04:37:30;;;;;;;9.40;5.53;;;10.50;99.90;;;;;;5032575;28;20037;-92
2022/06/04 04:39:55;;;;;;;8.32;5.13;;;10.50;99.90;;;;;;5032793;28;20028;-92
2022/06/04 04:42:22;;;;;;;10.77;5.80;;;10.50;99.90;;;;;;5031833;28;20057;-94
2022/06/04 04:44:48;;;;;;;17.92;6.07;;;10.50;99.90;;;;;;5033164;28;20076;-93
2022/06/04 04:47:14;;;;;;;9.25;5.45;;;10.60;99.90;;;;;;5032877;28;20426;-92
2022/06/04 04:49:40;;;;;;;10.70;5.93;;;10.60;99.90;;;;;;5033297;28;20029;-92
2022/06/04 04:52:06;;;;;;;15.40;5.95;;;10.60;99.90;;;;;;5033035;28;20077;-93
2022/06/04 04:54:32;;;;;;;10.25;6.78;;;10.60;99.90;;;;;;5032737;28;20091;-93
2022/06/04 04:56:58;;;;;;;7.88;5.90;;;10.60;99.90;;;;;;5032413;28;20029;-94
2022/06/04 04:59:24;;;;;;;12.52;6.45;;;10.70;99.90;;;;;;5032738;28;20394;-91
2022/06/04 05:01:50;;;;;;;7.40;5.22;;;10.70;99.90;;;;;;5032840;28;20128;-93
2022/06/04 05:04:15;;;;;;;10.52;6.00;;;10.70;99.90;;;;;;5034951;28;20088;-92
2022/06/04 05:06:41;;;;;;;10.50;4.60;;;10.70;99.90;;;;;;5035351;28;20041;-93
2022/06/04 05:09:08;;;;;;;10.32;6.00;;;10.80;99.90;;;;;;5035126;28;20029;-92
2022/06/04 05:11:34;;;;;;;10.90;5.20;;;10.80;99.90;;;;;;5034894;28;20053;-92
2022/06/04 05:14:01;;;;;;;7.70;5.18;;;10.80;99.90;;;;;;5035150;28;20044;-92
2022/06/04 05:16:30;;;;;;;11.43;4.32;;;10.80;99.90;;;;;;5034822;28;20475;-91
2022/06/04 05:18:56;;;;;;;9.32;5.05;;;10.80;99.90;;;;;;5037606;28;20033;-91
2022/06/04 05:21:25;;;;;;;11.13;4.90;;;10.80;99.90;;;;;;5036912;28;20072;-93
2022/06/04 05:23:53;;;;;;;12.70;5.10;;;10.80;99.90;;;;;;5037576;28;20390;-91
2022/06/04 05:26:19;;;;;;;10.38;4.90;;;10.80;99.90;;;;;;5037380;28;20081;-92
2022/06/04 05:28:45;;;;;;;8.38;4.93;;;10.80;99.90;;;;;;5037071;28;20029;-94
2022/06/04 05:31:11;;;;;;;12.32;5.35;;;10.80;99.90;;;;;;5036606;28;20044;-92
2022/06/04 05:33:37;;;;;;;10.77;4.65;;;10.80;99.90;;;;;;5036021;28;20128;-94
2022/06/04 05:36:03;;;;;;;15.35;7.03;;;10.80;99.90;;;;;;5036452;28;20045;-95
2022/06/04 05:38:34;;;;;;;8.32;4.53;;;10.90;99.90;;;;;;5036443;28;20043;-93
2022/06/04 05:41:04;;;;;;;;;;;10.90;99.90;;;;;;5037185;28;20025;-92
2022/06/04 05:43:30;;;;;;;14.25;5.72;;;10.90;99.90;;;;;;5037014;28;19911;-92
2022/06/04 05:46:01;;;;;;;9.43;5.07;;;10.90;99.90;;;;;;5048018;28;20058;-92
2022/06/04 05:48:27;;;;;;;6.70;4.47;;;11.00;99.90;;;;;;5043119;28;20025;-92
2022/06/04 05:50:55;;;;;;;8.50;4.45;;;11.00;99.90;;;;;;5037003;28;20116;-92
2022/06/04 05:53:22;;;;;;;8.52;4.28;;;11.00;99.90;;;;;;5036000;28;20037;-93
2022/06/04 05:55:48;;;;;;;9.38;4.50;;;11.10;99.90;;;;;;5036205;28;20034;-92
2022/06/04 05:58:14;;;;;;;11.60;5.53;;;11.10;99.90;;;;;;5035956;28;20055;-93
2022/06/04 06:00:40;;;;;;;11.07;4.97;;;11.20;99.90;;;;;;5035893;28;20116;-93
2022/06/04 06:03:06;;;;;;;8.57;4.47;;;11.20;99.90;;;;;;5019229;28;20026;-92
2022/06/04 06:05:40;;;;;;;7.18;4.57;;;11.30;99.90;;;;;;5035527;28;20056;-91
2022/06/04 06:08:06;;;;;;;5.57;3.88;;;11.30;99.90;;;;;;5035863;28;20033;-93
2022/06/04 06:10:32;;;;;;;10.13;4.75;;;11.40;99.90;;;;;;5035879;28;20033;-93
2022/06/04 06:12:58;;;;;;;11.77;5.35;;;11.40;99.90;;;;;;5036055;28;20520;-92
2022/06/04 06:15:23;;;;;;;9.40;4.80;;;11.50;99.90;;;;;;5035558;28;20022;-91
2022/06/04 06:17:49;;;;;;;11.80;5.45;;;11.50;99.90;;;;;;5035655;28;20041;-92
2022/06/04 06:20:16;;;;;;;8.55;5.25;;;11.60;99.90;;;;;;5035261;28;20033;-91
2022/06/04 06:22:41;;;;;;;10.50;4.97;;;11.50;99.90;;;;;;5035099;28;20036;-91
2022/06/04 06:25:07;;;;;;;8.52;4.43;;;11.60;99.90;;;;;;5035373;28;20120;-90
2022/06/04 06:27:33;;;;;;;8.80;5.32;;;11.60;99.90;;;;;;5034621;28;20038;-92
2022/06/04 06:29:59;;;;;;;11.68;5.38;;;11.60;99.90;;;;;;5035439;28;20030;-92
2022/06/04 06:32:26;;;;;;;7.10;4.20;;;11.60;99.90;;;;;;5035172;28;20033;-92
2022/06/04 06:34:52;;;;;;;6.38;4.50;;;11.70;99.90;;;;;;5035540;28;20495;-92
2022/06/04 06:37:21;;;;;;;10.07;4.57;;;11.70;99.90;;;;;;5035520;28;20025;-93
2022/06/04 06:39:47;;;;;;;11.13;4.55;;;11.70;99.90;;;;;;5035107;28;20025;-92
2022/06/04 06:42:12;;;;;;;10.73;4.72;;;11.80;99.90;;;;;;5036281;28;20095;-92
2022/06/04 06:44:38;;;;;;;8.32;5.25;;;11.70;99.90;;;;;;5035323;28;20145;-90
2022/06/04 06:47:04;;;;;;;10.35;5.95;;;11.80;99.90;;;;;;5035585;28;20144;-95
2022/06/04 06:49:30;;;;;;;8.63;4.72;;;11.70;99.90;;;;;;5040721;28;20101;-92
2022/06/04 06:52:01;;;;;;;12.82;5.70;;;11.70;99.90;;;;;;5036951;28;20048;-92
2022/06/04 06:54:31;;;;;;;9.48;5.60;;;11.70;99.90;;;;;;5034016;28;20391;-92
2022/06/04 06:56:57;;;;;;;10.90;5.05;;;11.70;99.90;;;;;;5034126;28;20071;-91
2022/06/04 06:59:25;;;;;;;11.52;3.83;;;11.70;99.90;;;;;;5034191;28;20041;-93
2022/06/04 07:01:52;;;;;;;10.13;5.00;;;11.80;99.90;;;;;;5033738;28;20032;-92
2022/06/04 07:04:19;;;;;;;9.77;4.88;;;11.80;99.90;;;;;;5034328;28;20029;-90
2022/06/04 07:06:50;;;;;;;7.97;4.22;;;11.90;99.90;;;;;;5034165;28;20033;-91
2022/06/04 07:09:26;;;;;;;11.63;5.32;;;11.90;99.90;;;;;;5034068;28;20054;-91
2022/06/04 07:11:53;;;;;;;11.05;4.22;;;11.90;99.90;;;;;;5035500;28;20145;-92
2022/06/04 07:14:20;;;;;;;14.35;5.13;;;11.90;99.90;;;;;;5035018;28;20028;-91
2022/06/04 07:16:46;;;;;;;6.55;4.55;;;11.90;99.90;;;;;;5033635;28;20101;-91
2022/06/04 07:19:13;;;;;;;11.27;4.40;;;12.00;99.90;;;;;;5033837;28;20017;-93
2022/06/04 07:21:40;;;;;;;9.27;4.20;;;12.00;99.90;;;;;;5034594;28;20032;-92
2022/06/04 07:24:07;;;;;;;7.25;3.85;;;12.00;99.90;;;;;;5033509;28;20467;-92
2022/06/04 07:26:33;;;;;;;10.85;3.83;;;12.00;99.90;;;;;;5033449;28;20022;-91
2022/06/04 07:28:59;;;;;;;9.38;3.35;;;12.00;99.90;;;;;;5034246;28;20033;-92
2022/06/04 07:31:25;;;;;;;9.93;3.45;;;12.00;99.90;;;;;;5040377;28;20033;-93
2022/06/04 07:33:55;;;;;;;6.32;3.38;;;12.00;99.90;;;;;;5040901;28;20037;-93
2022/06/04 07:36:25;;;;;;;8.50;3.53;;;12.00;99.90;;;;;;5035516;28;20045;-91
2022/06/04 07:38:51;;;;;;;8.13;3.53;;;12.00;99.90;;;;;;5033479;28;20033;-93
2022/06/04 07:41:40;;;;;;;6.55;3.42;;;12.00;99.90;;;;;;5033725;28;20021;-92
2022/06/04 07:44:06;;;;;;;5.60;3.42;;;12.00;99.90;;;;;;5033646;28;20025;-91
2022/06/04 07:46:33;;;;;;;9.07;3.70;;;12.00;99.90;;;;;;5033614;28;20061;-92
2022/06/04 07:49:00;;;;;;;10.38;3.35;;;12.10;99.90;;;;;;5037157;28;20029;-93
2022/06/04 07:51:27;;;;;;;10.93;3.97;;;12.10;99.90;;;;;;5035647;28;20513;-94
2022/06/04 07:53:53;;;;;;;4.38;2.97;;;12.10;99.90;;;;;;5033801;28;20022;-94
2022/06/04 07:56:20;;;;;;;5.35;3.00;;;12.20;99.90;;;;;;5034881;28;20030;-93
2022/06/04 07:58:46;;;;;;;6.45;3.10;;;12.20;99.90;;;;;;5034059;28;20033;-93
2022/06/04 08:01:15;;;;;;;6.05;3.08;;;12.30;99.90;;;;;;5034519;28;20083;-94
2022/06/04 08:03:42;;;;;;;5.78;3.28;;;12.40;99.90;;;;;;5048379;28;20053;-92
2022/06/04 08:06:10;;;;;;;5.30;3.47;;;12.40;99.90;;;;;;5044074;28;20116;-93
2022/06/04 08:08:36;;;;;;;8.05;3.40;;;12.40;99.90;;;;;;5037684;28;20026;-94
2022/06/04 08:11:30;;;;;;;7.65;3.63;;;12.40;99.90;;;;;;5038038;28;20025;-93
2022/06/04 08:13:47;;;;;;;8.65;3.40;;;12.50;99.90;;;;;;5037502;28;20140;-95
2022/06/04 08:16:13;;;;;;;8.43;3.90;;;12.50;99.90;;;;;;5035244;28;20037;-94
2022/06/04 08:18:38;;;;;;;10.40;3.75;;;12.60;99.90;;;;;;5035383;28;20105;-91
2022/06/04 08:21:06;;;;;;;5.93;3.47;;;12.60;99.90;;;;;;5034498;28;20022;-92
2022/06/04 08:23:32;;;;;;;9.25;4.13;;;12.60;99.90;;;;;;5033684;28;20030;-95
2022/06/04 08:25:57;;;;;;;4.85;2.97;;;12.70;99.90;;;;;;5034690;28;20026;-94
2022/06/04 08:28:23;;;;;;;5.88;3.20;;;12.70;99.90;;;;;;5034193;28;20124;-94
2022/06/04 08:31:08;;;;;;;9.63;3.53;;;12.70;99.90;;;;;;5034773;28;20044;-94
2022/06/04 08:33:36;;;;;;;6.25;3.70;;;12.70;99.90;;;;;;5035436;28;20079;-94
2022/06/04 08:36:03;;;;;;;10.77;3.72;;;12.80;99.90;;;;;;5037098;28;20049;-92
2022/06/04 08:38:29;;;;;;;7.35;4.57;;;12.80;99.90;;;;;;5036879;28;20088;-93
2022/06/04 08:41:00;;;;;;;8.20;3.72;;;12.80;99.90;;;;;;5046570;28;20463;-91
2022/06/04 08:43:55;;;;;;;7.50;4.07;;;12.90;99.90;;;;;;5049184;28;20033;-92
2022/06/04 08:46:42;;;;;;;8.13;3.33;;;12.90;99.90;;;;;;5035511;28;20018;-91
2022/06/04 08:49:18;;;;;;;6.55;3.70;;;12.90;99.90;;;;;;5033739;28;20029;-93
2022/06/04 08:51:45;;;;;;;5.10;3.65;;;12.90;99.90;;;;;;5036013;28;20045;-93
2022/06/04 08:59:54;;;;;;;6.90;3.47;;;12.90;99.90;;;;;;5038539;28;20048;-92
2022/06/04 09:02:26;;;;;;;5.32;3.45;;;12.90;99.90;;;;;;5038104;28;20056;-94
2022/06/04 09:05:19;;;;;;;5.40;3.70;;;12.90;99.90;;;;;;5038569;28;20032;-94
2022/06/04 09:07:49;;;;;;;4.43;3.42;;;12.90;99.90;;;;;;5041442;28;20033;-92
2022/06/04 09:10:22;;;;;;;6.03;3.28;;;12.90;99.90;;;;;;5039479;28;20112;-93
2022/06/04 09:12:58;;;;;;;5.15;3.47;;;13.00;99.90;;;;;;5043219;28;20045;-93
2022/06/04 09:15:41;;;;;;;4.60;3.40;;;13.10;99.90;;;;;;5037686;28;20021;-93
2022/06/04 09:18:18;;;;;;;4.20;2.97;;;13.20;99.90;;;;;;5047663;28;20387;-93
2022/06/04 09:20:51;;;;;;;5.00;3.08;;;13.20;99.90;;;;;;5038608;28;20060;-92
2022/06/04 09:23:34;;;;;;;8.23;3.30;;;13.20;99.90;;;;;;5037733;28;20471;-92
2022/06/04 09:26:12;;;;;;;7.88;2.90;;;13.30;99.90;;;;;;5037327;28;20029;-93
2022/06/04 09:28:57;;;;;;;7.18;3.50;;;13.40;99.90;;;;;;5037108;28;20060;-93
2022/06/04 09:31:48;;;;;;;4.43;3.03;;;13.60;99.90;;;;;;5037229;28;20022;-94
2022/06/04 09:34:26;;;;;;;6.75;4.55;;;13.70;99.90;;;;;;5036472;28;20049;-91
2022/06/04 09:36:53;;;;;;;7.40;3.67;;;13.80;99.90;;;;;;5037948;28;20109;-92
2022/06/04 09:39:34;;;;;;;6.55;3.13;;;13.90;99.60;;;;;;5036729;28;20055;-93
2022/06/04 09:42:02;;;;;;;;;;;14.00;99.30;;;;;;5037999;28;20048;-92
2022/06/04 09:44:35;;;;;;;7.07;3.45;;;14.10;99.20;;;;;;5036923;28;19909;-93
2022/06/04 09:47:25;;;;;;;6.10;3.58;;;14.20;98.80;;;;;;5035977;28;20497;-92
2022/06/04 09:49:59;;;;;;;6.65;3.25;;;14.30;98.20;;;;;;5037000;28;20037;-92
2022/06/04 09:52:42;;;;;;;8.88;3.20;;;14.30;97.60;;;;;;5036253;28;20048;-92
2022/06/04 09:55:20;;;;;;;5.47;2.80;;;14.30;97.30;;;;;;5036330;28;20021;-92
2022/06/04 09:57:57;;;;;;;4.38;2.88;;;14.30;96.80;;;;;;5035761;28;20025;-92
2022/06/04 10:00:30;;;;;;;5.88;2.78;;;14.40;96.50;;;;;;5035771;28;20416;-92
2022/06/04 10:02:59;;;;;;;7.90;3.20;;;14.50;96.60;;;;;;5038764;28;20080;-93
2022/06/04 10:05:28;;;;;;;5.88;2.90;;;14.60;96.40;;;;;;5039447;28;20024;-92
2022/06/04 10:07:54;;;;;;;3.83;2.78;;;14.70;96.00;;;;;;5036204;28;20391;-92
2022/06/04 10:10:57;;;;;;;5.90;3.08;;;14.70;95.60;;;;;;5036426;28;20033;-94
2022/06/04 10:13:42;;;;;;;4.43;2.85;;;14.80;95.50;;;;;;5037808;28;20038;-93
2022/06/04 10:16:19;;;;;;;5.32;3.42;;;14.80;95.30;;;;;;5036675;28;20029;-91
2022/06/04 10:18:59;;;;;;;7.43;3.30;;;14.90;94.90;;;;;;5036492;28;20018;-93
2022/06/04 10:21:30;;;;;;;8.63;3.60;;;15.00;94.70;;;;;;5037389;28;20022;-92
2022/06/04 10:23:57;;;;;;;;;;;14.90;94.20;;;;;;5036867;28;20033;-92
2022/06/04 10:26:42;;;;;;;4.43;3.00;;;14.80;94.40;;;;;;5034886;28;19966;-91
2022/06/04 10:29:46;;;;;;;4.22;2.60;;;14.80;94.40;;;;;;5036479;28;20024;-92
2022/06/04 10:32:50;;;;;;;5.07;2.60;;;14.80;94.40;;;;;;5036725;28;20044;-92
2022/06/04 10:35:26;;;;;;;5.53;3.40;;;15.00;94.40;;;;;;5029054;28;20038;-91
2022/06/04 10:37:57;;;;;;;5.43;3.03;;;15.20;94.50;;;;;;5037826;28;20037;-92
2022/06/04 10:40:58;;;;;;;7.40;3.22;;;15.30;94.30;;;;;;5035314;28;20030;-92
2022/06/04 10:43:26;;;;;;;5.57;3.60;;;15.30;94.00;;;;;;5035225;28;20022;-94
2022/06/04 10:46:11;;;;;;;6.82;3.55;;;15.40;94.00;;;;;;5035027;28;20307;-92
2022/06/04 10:49:04;;;;;;;6.00;3.15;;;15.40;93.80;;;;;;5034966;28;20083;-92
2022/06/04 10:52:00;;;;;;;8.43;3.55;;;15.40;93.40;;;;;;5034993;28;20043;-92
2022/06/04 10:54:51;;;;;;;6.63;3.30;;;15.40;93.40;;;;;;5035020;28;20034;-92
2022/06/04 10:57:20;;;;;;;5.25;3.05;;;15.50;93.20;;;;;;5035393;28;20083;-93
2022/06/04 11:00:00;;;;;;;5.60;3.25;;;15.50;93.20;;;;;;5037390;28;20061;-91
2022/06/04 11:02:44;;;;;;;6.32;3.58;;;15.40;93.00;;;;;;5053018;28;20045;-92
2022/06/04 11:05:20;;;;;;;5.72;3.42;;;15.30;92.90;;;;;;5050576;28;20044;-92
2022/06/04 11:07:57;;;;;;;6.82;3.17;;;15.20;93.00;;;;;;5035991;28;20032;-91
2022/06/04 11:10:36;;;;;;;7.80;3.47;;;15.10;92.80;;;;;;5035776;28;20044;-91
2022/06/04 11:13:15;;;;;;;5.07;3.55;;;15.00;93.00;;;;;;5035117;28;20042;-92
2022/06/04 11:16:14;;;;;;;8.55;3.45;;;15.00;93.10;;;;;;5035018;28;20048;-91
2022/06/04 11:18:48;;;;;;;6.97;3.63;;;15.00;93.00;;;;;;5026624;28;20041;-93
2022/06/04 11:21:28;;;;;;;7.03;4.07;;;14.90;93.00;;;;;;5035983;28;20021;-94
2022/06/04 11:24:00;;;;;;;;;;;14.90;93.10;;;;;;5038880;28;20183;-93
2022/06/04 11:26:55;;;;;;;6.28;3.13;;;14.90;93.30;;;;;;5035186;28;19905;-91
2022/06/04 11:29:21;;;;;;;5.82;3.10;;;14.90;93.30;;;;;;5034529;28;20053;-94
2022/06/04 11:32:02;;;;;;;11.90;3.42;;;14.90;93.20;;;;;;5033748;28;20053;-92
2022/06/04 11:35:04;;;;;;;3.88;3.03;;;14.90;93.30;;;;;;5034405;28;20049;-94
2022/06/04 11:37:36;;;;;;;4.45;3.22;;;14.90;93.20;;;;;;5034866;28;20049;-92
2022/06/04 11:40:34;;;;;;;4.25;2.95;;;14.90;93.00;;;;;;5034544;28;20021;-92
2022/06/04 11:43:01;;;;;;;6.32;2.90;;;14.90;93.00;;;;;;5034123;28;20025;-92
2022/06/04 11:45:39;;;;;;;4.93;2.85;;;15.10;92.90;;;;;;5035776;28;20025;-92
2022/06/04 11:48:40;;;;;;;5.53;3.03;;;15.00;92.40;;;;;;5034752;28;20021;-92
2022/06/04 11:51:24;;;;;;;9.35;3.17;;;15.00;92.50;;;;;;5030213;28;20037;-95
2022/06/04 11:54:11;;;;;;;10.57;3.00;;;15.10;92.60;;;;;;5034868;28;20123;-91
2022/06/04 11:56:58;;;;;;;5.05;2.97;;;15.10;92.60;;;;;;5034986;28;20049;-93
2022/06/04 11:59:47;;;;;;;5.70;3.08;;;15.10;92.50;;;;;;5034111;28;20038;-94
2022/06/04 12:02:18;;;;;;;6.78;2.90;;;15.10;92.60;;;;;;5034431;28;20048;-94
2022/06/04 12:04:59;;;;;;;7.85;3.70;;;15.10;92.60;;;;;;5037257;28;20025;-91
2022/06/04 12:07:40;;;;;;;7.13;3.58;;;15.10;92.70;;;;;;5035000;28;20041;-91
2022/06/04 12:10:06;;;;;;;9.10;3.47;;;15.10;92.80;;;;;;5033983;28;20029;-92
2022/06/04 12:12:42;;;;;;;6.78;3.05;;;15.10;92.80;;;;;;5034967;28;20029;-94
2022/06/04 12:15:23;;;;;;;6.60;3.70;;;15.10;93.00;;;;;;5034046;28;20022;-92
2022/06/04 12:17:59;;;;;;;6.18;3.15;;;15.00;93.10;;;;;;5034194;28;20056;-93
2022/06/04 12:26:26;;;;;;;7.00;3.55;;;14.90;93.40;;;;;;5034672;28;20082;-90
2022/06/04 12:28:53;;;;;;;10.40;3.33;;;14.80;93.60;;;;;;5034176;28;20022;-93
2022/06/04 12:31:35;;;;;;;5.90;3.25;;;14.70;93.80;;;;;;5036532;28;20112;-93
2022/06/04 12:34:03;;;;;;;6.88;4.15;;;14.70;94.00;;;;;;5039933;28;20133;-94
2022/06/04 12:36:37;;;;;;;10.85;4.63;;;14.70;94.30;;;;;;5048946;28;20030;-94
2022/06/04 12:39:20;;;;;;;10.00;5.22;;;14.70;94.40;;;;;;5050593;28;20022;-92
2022/06/04 12:41:49;;;;;;;10.02;5.35;;;14.60;94.70;;;;;;5045421;28;20034;-92
2022/06/04 12:44:33;;;;;;;10.15;5.60;;;14.60;94.70;;;;;;5045711;28;20032;-92
2022/06/04 12:47:19;;;;;;;12.48;5.55;;;14.50;95.00;;;;;;5035517;28;20037;-93
2022/06/04 12:50:11;;;;;;;13.52;6.07;;;14.60;95.10;;;;;;5040784;28;20029;-93
2022/06/04 12:52:48;;;;;;;8.50;5.75;;;14.60;95.10;;;;;;5033072;28;20076;-92
2022/06/04 12:55:23;;;;;;;11.85;6.60;;;14.70;95.10;;;;;;5033092;28;20045;-93
2022/06/04 12:58:09;;;;;;;10.18;5.72;;;14.80;95.20;;;;;;5033378;28;20487;-93
2022/06/04 13:00:39;;;;;;;14.23;5.55;;;14.80;95.00;;;;;;5034276;28;20028;-93
2022/06/04 13:03:08;;;;;;;9.15;4.93;;;14.90;94.90;;;;;;5033445;28;20045;-94
2022/06/04 13:06:12;;;;;;;7.68;4.00;;;14.90;94.90;;;;;;5032999;28;20107;-94
2022/06/04 13:08:46;;;;;;;12.93;4.40;;;15.00;94.90;;;;;;5033047;28;20064;-94
2022/06/04 13:11:25;;;;;;;8.93;4.38;;;15.00;94.70;;;;;;5032974;28;20031;-92
2022/06/04 13:14:11;;;;;;;10.40;4.95;;;15.00;94.60;;;;;;5033272;28;20040;-92
2022/06/04 13:16:50;;;;;;;9.30;4.85;;;15.10;94.80;;;;;;5035929;28;20025;-94
2022/06/04 13:19:37;;;;;;;6.40;4.28;;;15.10;94.60;;;;;;5035404;28;20029;-93
2022/06/04 13:22:04;;;;;;;9.32;5.32;;;15.10;94.50;;;;;;5033313;28;20028;-91
2022/06/04 13:24:33;;;;;;;10.60;5.50;;;15.10;94.60;;;;;;5033896;28;20029;-93
2022/06/04 13:27:05;;;;;;;12.13;5.78;;;15.10;94.50;;;;;;5032734;28;20021;-93
2022/06/04 13:29:37;;;;;;;12.65;5.85;;;15.30;94.50;;;;;;5034629;28;20034;-94